createdAt,value
2022-07-30T00:00:37.321Z,8.50
2022-07-30T00:03:05.674Z,9.70
2022-07-30T00:05:33.716Z,8.90
2022-07-30T00:08:03.417Z,8.70
2022-07-30T00:10:31.565Z,9.57
2022-07-30T00:12:59.612Z,8.57
2022-07-30T00:15:28.777Z,9.10
2022-07-30T00:17:56.835Z,9.32
2022-07-30T00:20:27.983Z,9.80
2022-07-30T00:22:57.834Z,8.88
2022-07-30T00:25:25.948Z,10.90
2022-07-30T00:27:53.978Z,12.10
2022-07-30T00:30:22.716Z,11.70
2022-07-30T00:32:50.984Z,12.25
2022-07-30T00:35:19.083Z,12.18
2022-07-30T00:37:47.249Z,12.05
2022-07-30T00:40:15.337Z,11.18
2022-07-30T00:42:46.513Z,11.57
2022-07-30T00:45:18.152Z,10.93
2022-07-30T00:47:46.854Z,11.93
2022-07-30T00:50:16.975Z,11.63
2022-07-30T00:52:46.051Z,11.27
2022-07-30T00:55:16.384Z,11.33
2022-07-30T00:57:45.714Z,10.45
2022-07-30T01:00:21.242Z,10.27
2022-07-30T01:02:49.469Z,10.50
2022-07-30T01:05:18.270Z,10.52
2022-07-30T01:07:48.879Z,10.43
2022-07-30T01:10:18.533Z,10.38
2022-07-30T01:12:46.693Z,10.00
2022-07-30T01:15:17.798Z,10.00
2022-07-30T01:17:53.025Z,9.18
2022-07-30T01:20:35.851Z,9.73
2022-07-30T01:23:11.989Z,9.48
2022-07-30T01:25:52.701Z,9.05
2022-07-30T01:28:26.974Z,8.98
2022-07-30T01:30:57.536Z,9.18
2022-07-30T01:33:28.448Z,9.40
2022-07-30T01:35:58.194Z,8.27
2022-07-30T01:38:33.635Z,8.27
2022-07-30T01:41:06.338Z,8.43
2022-07-30T01:43:36.601Z,10.10
2022-07-30T01:46:05.953Z,8.50
2022-07-30T01:48:38.078Z,9.23
2022-07-30T01:51:08.288Z,9.45
2022-07-30T01:53:40.229Z,8.30
2022-07-30T01:56:11.397Z,8.10
2022-07-30T01:58:42.734Z,8.38
2022-07-30T02:01:10.913Z,8.43
2022-07-30T02:03:39.118Z,8.23
2022-07-30T02:06:24.559Z,8.45
2022-07-30T02:09:00.462Z,8.10
2022-07-30T02:11:46.974Z,8.73
2022-07-30T02:14:25.005Z,8.68
2022-07-30T02:17:00.473Z,8.25
2022-07-30T02:19:40.007Z,7.97
2022-07-30T02:22:16.118Z,7.38
2022-07-30T02:24:46.058Z,8.38
2022-07-30T02:27:21.004Z,8.05
2022-07-30T02:29:51.769Z,8.95
2022-07-30T02:32:22.784Z,9.15
2022-07-30T02:34:58.123Z,9.00
2022-07-30T02:37:42.942Z,9.23
2022-07-30T02:40:16.832Z,8.88
2022-07-30T02:42:50.342Z,9.48
2022-07-30T02:45:19.836Z,8.75
2022-07-30T02:47:53.436Z,11.10
2022-07-30T02:50:23.707Z,12.35
2022-07-30T02:52:54.299Z,11.55
2022-07-30T02:55:23.900Z,12.80
2022-07-30T02:57:54.357Z,12.73
2022-07-30T03:00:24.895Z,12.63
2022-07-30T03:02:56.905Z,11.63
2022-07-30T03:05:27.671Z,11.93
2022-07-30T03:07:58.666Z,12.15
2022-07-30T03:10:30.401Z,11.80
2022-07-30T03:13:01.433Z,12.02
2022-07-30T03:15:30.800Z,11.02
2022-07-30T03:18:00.834Z,10.40
2022-07-30T03:20:33.445Z,11.63
2022-07-30T03:23:03.879Z,12.20
2022-07-30T03:25:35.739Z,12.23
2022-07-30T03:28:07.264Z,11.43
2022-07-30T03:30:35.679Z,12.40
2022-07-30T03:33:04.189Z,12.13
2022-07-30T03:35:33.349Z,12.40
2022-07-30T03:38:03.520Z,12.82
2022-07-30T03:43:00.765Z,12.85
2022-07-30T03:45:29.230Z,14.00
2022-07-30T03:47:58.464Z,12.60
2022-07-30T03:50:27.135Z,12.07
2022-07-30T03:52:55.991Z,13.43
2022-07-30T03:55:24.588Z,11.32
2022-07-30T03:57:52.790Z,12.52
2022-07-30T04:00:21.010Z,11.00
2022-07-30T04:02:49.287Z,9.73
2022-07-30T04:05:17.997Z,9.90
2022-07-30T04:07:46.406Z,9.52
2022-07-30T04:10:16.265Z,8.67
2022-07-30T04:12:45.415Z,8.23
2022-07-30T04:16:40.438Z,8.23
2022-07-30T04:18:05.560Z,8.70
2022-07-30T04:20:42.396Z,8.75
2022-07-30T04:23:11.561Z,9.13
2022-07-30T04:25:41.657Z,8.57
2022-07-30T04:28:12.414Z,8.80
2022-07-30T04:30:41.937Z,9.38
2022-07-30T04:35:56.591Z,8.60
2022-07-30T04:38:51.275Z,8.20
2022-07-30T04:41:26.457Z,7.95
2022-07-30T04:43:56.540Z,9.55
2022-07-30T04:46:28.921Z,8.57
2022-07-30T04:49:05.364Z,8.55
2022-07-30T04:51:47.978Z,8.02
2022-07-30T04:54:18.945Z,8.25
2022-07-30T04:56:56.904Z,8.20
2022-07-30T04:59:25.957Z,7.90
2022-07-30T05:01:58.387Z,8.27
2022-07-30T05:04:27.530Z,7.68
2022-07-30T05:06:57.965Z,7.13
2022-07-30T05:09:26.829Z,8.55
2022-07-30T05:12:10.977Z,8.65
2022-07-30T05:14:44.388Z,8.45
2022-07-30T05:17:15.955Z,8.05
2022-07-30T05:19:45.062Z,8.30
2022-07-30T05:22:16.409Z,8.05
2022-07-30T05:24:44.427Z,8.43
2022-07-30T05:27:15.016Z,8.77
2022-07-30T05:29:43.133Z,8.88
2022-07-30T05:32:11.629Z,8.98
2022-07-30T05:34:39.839Z,9.27
2022-07-30T05:37:09.996Z,10.13
2022-07-30T05:40:02.166Z,9.93
2022-07-30T05:42:29.516Z,10.15
2022-07-30T05:44:57.714Z,10.20
2022-07-30T05:47:25.841Z,10.65
2022-07-30T05:49:54.206Z,11.00
2022-07-30T05:52:22.410Z,10.55
2022-07-30T05:54:50.323Z,10.45
2022-07-30T05:57:18.494Z,11.02
2022-07-30T05:59:48.097Z,11.35
2022-07-30T06:02:16.150Z,10.30
2022-07-30T06:04:46.114Z,11.80
2022-07-30T06:07:14.548Z,10.82
2022-07-30T06:12:29.668Z,10.48
2022-07-30T06:14:59.318Z,12.02
2022-07-30T06:17:27.291Z,11.43
2022-07-30T06:19:55.595Z,11.50
2022-07-30T06:22:26.105Z,10.95
2022-07-30T06:24:54.375Z,11.77
2022-07-30T06:27:24.290Z,11.00
2022-07-30T06:29:53.228Z,11.93
2022-07-30T06:32:21.198Z,11.52
2022-07-30T06:34:55.255Z,11.55
2022-07-30T06:38:06.436Z,12.00
2022-07-30T06:40:19.921Z,13.88
2022-07-30T06:42:47.959Z,12.73
2022-07-30T06:45:16.183Z,12.40
2022-07-30T06:47:44.383Z,11.93
2022-07-30T06:50:12.386Z,11.70
2022-07-30T06:52:41.122Z,11.70
2022-07-30T06:55:11.238Z,13.48
2022-07-30T06:57:42.494Z,11.82
2022-07-30T07:00:11.507Z,11.52
2022-07-30T07:02:40.114Z,12.60
2022-07-30T07:05:08.636Z,11.98
2022-07-30T07:07:42.319Z,11.70
2022-07-30T07:10:13.364Z,13.38
2022-07-30T07:12:41.463Z,12.27
2022-07-30T07:15:10.460Z,11.30
2022-07-30T07:17:40.131Z,12.67
2022-07-30T07:20:08.791Z,12.43
2022-07-30T07:22:36.891Z,12.65
2022-07-30T07:25:06.604Z,12.60
2022-07-30T07:27:34.842Z,12.88
2022-07-30T07:30:06.307Z,12.93
2022-07-30T07:32:37.074Z,12.98
2022-07-30T07:35:06.289Z,12.85
2022-07-30T07:37:34.806Z,12.05
2022-07-30T07:40:06.987Z,12.40
2022-07-30T07:42:35.009Z,12.23
2022-07-30T07:45:03.211Z,11.60
2022-07-30T07:47:32.572Z,11.45
2022-07-30T07:50:00.512Z,12.57
2022-07-30T07:52:28.580Z,12.63
2022-07-30T07:54:57.646Z,11.20
2022-07-30T07:57:25.678Z,11.90
2022-07-30T08:02:24.473Z,11.45
2022-07-30T08:04:52.538Z,10.65
2022-07-30T08:07:20.672Z,10.35
2022-07-30T08:09:50.903Z,10.80
2022-07-30T08:12:18.946Z,11.30
2022-07-30T08:14:47.139Z,10.70
2022-07-30T08:17:16.131Z,11.60
2022-07-30T08:19:44.351Z,11.33
2022-07-30T08:22:12.807Z,11.75
2022-07-30T08:24:42.104Z,12.63
2022-07-30T08:27:10.452Z,12.35
2022-07-30T08:29:38.863Z,12.00
2022-07-30T08:32:10.226Z,10.40
2022-07-30T08:34:38.459Z,11.07
2022-07-30T08:37:06.582Z,10.73
2022-07-30T08:39:35.677Z,10.57
2022-07-30T08:42:06.730Z,10.20
2022-07-30T08:44:36.962Z,10.60
2022-07-30T08:47:24.740Z,9.30
2022-07-30T08:49:53.639Z,9.73
2022-07-30T08:52:22.282Z,10.68
2022-07-30T08:54:51.545Z,8.93
2022-07-30T08:57:19.828Z,9.65
2022-07-30T08:59:59.615Z,9.82
2022-07-30T09:02:34.495Z,9.90
2022-07-30T09:05:02.689Z,10.40
2022-07-30T09:07:50.944Z,9.30
2022-07-30T09:10:19.710Z,8.32
2022-07-30T09:12:47.914Z,9.70
2022-07-30T09:15:18.599Z,10.10
2022-07-30T09:17:59.533Z,8.77
2022-07-30T09:20:34.972Z,8.80
2022-07-30T09:23:06.019Z,9.18
2022-07-30T09:25:34.145Z,9.32
2022-07-30T09:28:02.529Z,9.65
2022-07-30T09:30:52.767Z,9.23
2022-07-30T09:33:45.337Z,8.48
2022-07-30T09:36:19.522Z,8.18
2022-07-30T09:38:55.117Z,7.65
2022-07-30T09:41:42.117Z,7.95
2022-07-30T09:44:11.146Z,8.35
2022-07-30T09:46:48.310Z,7.70
2022-07-30T09:49:25.515Z,7.95
2022-07-30T09:51:57.223Z,7.72
2022-07-30T09:54:51.848Z,7.55
2022-07-30T09:57:25.675Z,7.97
2022-07-30T10:00:16.546Z,7.97
2022-07-30T10:02:48.498Z,7.80
2022-07-30T10:07:53.220Z,8.38
2022-07-30T10:10:27.486Z,7.80
2022-07-30T10:13:08.986Z,7.65
2022-07-30T10:15:50.475Z,7.55
2022-07-30T10:18:19.385Z,8.82
2022-07-30T10:20:47.905Z,7.43
2022-07-30T10:23:18.422Z,8.50
2022-07-30T10:25:55.191Z,8.38
2022-07-30T10:28:25.386Z,8.95
2022-07-30T10:30:54.791Z,8.20
2022-07-30T10:33:35.263Z,8.75
2022-07-30T10:36:08.985Z,9.57
2022-07-30T10:38:44.361Z,8.80
2022-07-30T10:41:43.016Z,8.95
2022-07-30T10:44:25.204Z,9.30
2022-07-30T10:47:07.113Z,9.75
2022-07-30T10:49:40.997Z,8.63
2022-07-30T10:52:10.671Z,9.27
2022-07-30T10:54:41.591Z,10.27
2022-07-30T10:57:22.945Z,9.70
2022-07-30T11:00:04.526Z,9.98
2022-07-30T11:02:35.952Z,10.02
2022-07-30T11:05:27.335Z,10.45
2022-07-30T11:08:32.118Z,9.45
2022-07-30T11:11:19.197Z,14.25
2022-07-30T11:14:00.890Z,11.73
2022-07-30T11:16:35.231Z,13.00
2022-07-30T11:22:28.207Z,12.90
2022-07-30T11:24:57.155Z,12.13
2022-07-30T11:27:51.771Z,12.77
2022-07-30T11:30:23.475Z,13.48
2022-07-30T11:32:52.888Z,12.48
2022-07-30T11:35:34.466Z,12.63
2022-07-30T11:38:09.680Z,12.57
2022-07-30T11:41:00.238Z,12.48
2022-07-30T11:43:37.181Z,14.73
2022-07-30T11:46:16.278Z,17.02
2022-07-30T11:49:09.084Z,15.68
2022-07-30T11:51:47.226Z,12.20
2022-07-30T11:54:15.685Z,14.63
2022-07-30T11:57:00.729Z,13.45
2022-07-30T11:59:31.978Z,13.60
2022-07-30T12:02:02.690Z,12.43
2022-07-30T12:04:31.376Z,13.90
2022-07-30T12:07:00.546Z,12.85
2022-07-30T12:09:30.576Z,12.77
2022-07-30T12:11:59.672Z,11.25
2022-07-30T12:14:41.208Z,11.82
2022-07-30T12:17:15.074Z,12.57
2022-07-30T12:19:50.797Z,10.77
2022-07-30T12:22:20.404Z,10.25
2022-07-30T12:24:48.655Z,11.40
2022-07-30T12:27:19.019Z,11.40
2022-07-30T12:29:47.115Z,11.90
2022-07-30T12:32:15.391Z,12.18
2022-07-30T12:34:58.906Z,11.85
2022-07-30T12:37:27.087Z,11.35
2022-07-30T12:40:15.237Z,11.95
2022-07-30T12:42:54.241Z,11.70
2022-07-30T12:45:52.164Z,12.50
2022-07-30T12:48:22.730Z,13.40
2022-07-30T12:51:07.967Z,13.73
2022-07-30T12:53:36.560Z,15.05
2022-07-30T12:56:37.809Z,15.10
2022-07-30T12:59:05.957Z,13.98
2022-07-30T13:01:45.853Z,14.30
2022-07-30T13:04:14.084Z,15.88
2022-07-30T13:06:43.196Z,14.98
2022-07-30T13:09:24.801Z,15.13
2022-07-30T13:11:53.109Z,14.60
2022-07-30T13:14:24.697Z,16.90
2022-07-30T13:16:59.754Z,17.40
2022-07-30T13:19:28.728Z,15.60
2022-07-30T13:21:56.796Z,14.82
2022-07-30T13:24:25.232Z,15.38
2022-07-30T13:26:53.268Z,15.20
2022-07-30T13:29:21.317Z,15.35
2022-07-30T13:31:50.281Z,16.17
2022-07-30T13:34:18.547Z,15.90
2022-07-30T13:36:46.835Z,16.55
2022-07-30T13:39:16.033Z,16.33
2022-07-30T13:41:44.171Z,16.25
2022-07-30T13:44:12.381Z,16.33
2022-07-30T13:46:41.577Z,15.23
2022-07-30T13:49:11.383Z,16.02
2022-07-30T13:54:10.663Z,13.95
2022-07-30T13:56:42.264Z,14.93
2022-07-30T13:59:10.863Z,16.15
2022-07-30T14:01:40.202Z,14.80
2022-07-30T14:04:09.261Z,14.40
2022-07-30T14:06:37.432Z,15.15
2022-07-30T14:09:05.656Z,15.52
2022-07-30T14:11:33.740Z,14.48
2022-07-30T14:14:02.782Z,15.67
2022-07-30T14:16:47.568Z,14.38
2022-07-30T14:19:24.159Z,15.13
2022-07-30T14:21:58.882Z,22.75
2022-07-30T14:24:27.075Z,16.33
2022-07-30T14:26:58.178Z,15.40
2022-07-30T14:29:28.254Z,48.40
2022-07-30T14:31:57.198Z,69.28
2022-07-30T14:34:25.689Z,53.77
2022-07-30T14:36:57.318Z,24.23
2022-07-30T14:39:25.735Z,40.83
2022-07-30T14:41:55.895Z,64.82
2022-07-30T14:44:24.639Z,55.65
2022-07-30T14:46:53.113Z,30.77
2022-07-30T14:49:24.181Z,27.42
2022-07-30T14:51:54.099Z,29.27
2022-07-30T14:54:23.377Z,29.70
2022-07-30T14:56:59.706Z,43.17
2022-07-30T14:59:30.010Z,37.70
2022-07-30T15:04:26.224Z,35.00
2022-07-30T15:06:54.591Z,41.15
2022-07-30T15:09:22.586Z,42.63
2022-07-30T15:12:08.360Z,44.67
2022-07-30T15:14:41.244Z,33.33
2022-07-30T15:17:09.552Z,29.90
2022-07-30T15:19:37.522Z,30.25
2022-07-30T15:22:37.090Z,35.42
2022-07-30T15:25:06.657Z,53.90
2022-07-30T15:27:35.176Z,32.83
2022-07-30T15:30:05.385Z,32.70
2022-07-30T15:32:52.099Z,33.78
2022-07-30T15:35:21.785Z,36.45
2022-07-30T15:37:49.751Z,39.67
2022-07-30T15:40:17.949Z,42.60
2022-07-30T15:42:46.874Z,29.25
2022-07-30T15:45:17.675Z,28.40
2022-07-30T15:47:47.496Z,31.17
2022-07-30T15:50:17.730Z,34.03
2022-07-30T15:52:46.471Z,30.75
2022-07-30T15:55:15.010Z,30.10
2022-07-30T15:57:46.271Z,28.08
2022-07-30T16:00:14.938Z,31.02
2022-07-30T16:02:44.315Z,32.67
2022-07-30T16:05:14.135Z,31.13
2022-07-30T16:07:44.050Z,25.23
2022-07-30T16:10:12.381Z,25.65
2022-07-30T16:12:45.179Z,25.60
2022-07-30T16:15:14.355Z,27.13
2022-07-30T16:17:44.639Z,30.85
2022-07-30T16:20:13.376Z,31.60
2022-07-30T16:22:41.606Z,32.28
2022-07-30T16:25:10.256Z,30.77
2022-07-30T16:27:38.641Z,29.48
2022-07-30T16:30:07.396Z,34.83
2022-07-30T16:32:35.762Z,28.88
2022-07-30T16:35:04.310Z,36.78
2022-07-30T16:37:32.523Z,38.22
2022-07-30T16:40:00.627Z,35.38
2022-07-30T16:42:28.946Z,37.80
2022-07-30T16:44:57.102Z,39.63
2022-07-30T16:47:25.103Z,37.88
2022-07-30T16:49:53.396Z,35.35
2022-07-30T16:52:21.671Z,36.22
2022-07-30T16:54:54.979Z,37.38
2022-07-30T16:57:23.372Z,38.95
2022-07-30T16:59:51.521Z,39.17
2022-07-30T17:02:19.558Z,40.88
2022-07-30T17:04:48.673Z,40.75
2022-07-30T17:07:16.949Z,39.47
2022-07-30T17:09:45.040Z,37.95
2022-07-30T17:12:23.277Z,41.53
2022-07-30T17:14:54.076Z,41.92
2022-07-30T17:17:23.588Z,41.10
2022-07-30T17:19:51.975Z,40.92
2022-07-30T17:22:20.153Z,39.63
2022-07-30T17:24:48.270Z,40.03
2022-07-30T17:30:03.872Z,40.97
2022-07-30T17:32:32.474Z,41.42
2022-07-30T17:35:00.752Z,38.72
2022-07-30T17:37:28.991Z,35.72
2022-07-30T17:40:27.387Z,32.22
2022-07-30T17:42:47.315Z,33.50
2022-07-30T17:45:15.546Z,32.05
2022-07-30T17:47:43.769Z,36.47
2022-07-30T17:50:12.027Z,41.72
2022-07-30T17:52:41.856Z,36.40
2022-07-30T17:55:13.072Z,33.50
2022-07-30T17:57:41.360Z,29.92
2022-07-30T18:00:11.280Z,32.08
2022-07-30T18:02:39.657Z,29.10
2022-07-30T18:05:09.231Z,31.58
2022-07-30T18:07:38.484Z,34.22
2022-07-30T18:10:07.839Z,38.60
2022-07-30T18:12:36.056Z,39.53
2022-07-30T18:15:07.337Z,37.85
2022-07-30T18:20:04.885Z,44.53
2022-07-30T18:22:33.031Z,44.00
2022-07-30T18:25:01.252Z,44.70
2022-07-30T18:29:59.225Z,40.15
2022-07-30T18:32:27.268Z,40.58
2022-07-30T18:34:55.470Z,39.65
2022-07-30T18:37:23.634Z,42.83
2022-07-30T18:39:51.877Z,42.13
2022-07-30T18:42:19.852Z,37.15
2022-07-30T18:44:48.357Z,32.28
2022-07-30T18:47:16.500Z,25.80
2022-07-30T18:49:44.649Z,25.83
2022-07-30T18:52:12.983Z,25.05
2022-07-30T18:54:40.977Z,29.15
2022-07-30T18:57:14.160Z,33.38
2022-07-30T18:59:43.835Z,33.08
2022-07-30T19:02:12.096Z,30.77
2022-07-30T19:04:40.131Z,34.55
2022-07-30T19:07:10.142Z,38.88
2022-07-30T19:12:06.472Z,42.90
2022-07-30T19:14:35.434Z,40.60
2022-07-30T19:17:13.591Z,47.55
2022-07-30T19:19:46.230Z,38.58
2022-07-30T19:22:14.301Z,37.97
2022-07-30T19:24:42.383Z,33.17
2022-07-30T19:27:14.275Z,31.48
2022-07-30T19:29:42.902Z,32.13
2022-07-30T19:32:10.990Z,33.58
2022-07-30T19:34:41.234Z,34.58
2022-07-30T19:37:09.399Z,31.05
2022-07-30T19:39:37.521Z,28.25
2022-07-30T19:42:28.162Z,26.70
2022-07-30T19:44:58.735Z,31.05
2022-07-30T19:47:38.397Z,32.13
2022-07-30T19:50:08.992Z,32.13
2022-07-30T19:52:37.909Z,31.85
2022-07-30T19:55:17.235Z,33.97
2022-07-30T19:57:56.052Z,36.28
2022-07-30T20:00:24.771Z,38.95
2022-07-30T20:02:53.554Z,39.73
2022-07-30T20:05:24.673Z,39.20
2022-07-30T20:07:53.557Z,38.75
2022-07-30T20:10:23.979Z,35.13
2022-07-30T20:12:51.967Z,32.88
2022-07-30T20:15:21.246Z,32.47
2022-07-30T20:17:51.221Z,38.85
2022-07-30T20:20:26.380Z,36.97
2022-07-30T20:22:55.072Z,36.30
2022-07-30T20:25:23.114Z,37.00
2022-07-30T20:27:51.125Z,37.78
2022-07-30T20:30:25.403Z,31.77
2022-07-30T20:32:53.749Z,29.05
2022-07-30T20:35:26.052Z,28.95
2022-07-30T20:40:26.627Z,26.77
2022-07-30T20:42:56.118Z,26.00
2022-07-30T20:45:25.840Z,24.27
2022-07-30T20:48:16.956Z,26.20
2022-07-30T20:50:49.357Z,30.25
2022-07-30T20:53:17.798Z,31.48
2022-07-30T20:55:46.905Z,32.72
2022-07-30T20:58:16.551Z,31.63
2022-07-30T21:00:49.720Z,31.60
2022-07-30T21:03:22.378Z,30.05
2022-07-30T21:05:52.735Z,31.25
2022-07-30T21:08:25.280Z,29.65
2022-07-30T21:10:55.107Z,32.45
2022-07-30T21:13:25.020Z,31.85
2022-07-30T21:16:02.191Z,35.20
2022-07-30T21:18:34.219Z,36.40
2022-07-30T21:21:05.541Z,32.97
2022-07-30T21:23:34.225Z,30.25
2022-07-30T21:26:06.988Z,28.63
2022-07-30T21:28:40.263Z,29.20
2022-07-30T21:31:09.429Z,32.47
2022-07-30T21:33:38.508Z,35.20
2022-07-30T21:36:10.736Z,35.75
2022-07-30T21:38:43.094Z,33.78
2022-07-30T21:41:14.175Z,34.28
2022-07-30T21:43:44.942Z,33.83
2022-07-30T21:46:14.811Z,33.03
2022-07-30T21:48:46.488Z,34.45
2022-07-30T21:51:16.443Z,34.83
2022-07-30T21:53:46.499Z,34.67
2022-07-30T21:56:16.376Z,32.70
2022-07-30T21:58:45.758Z,32.65
2022-07-30T22:01:25.109Z,33.38
2022-07-30T22:04:03.246Z,36.85
2022-07-30T22:06:42.899Z,35.10
2022-07-30T22:09:19.324Z,34.72
2022-07-30T22:12:09.245Z,32.03
2022-07-30T22:14:40.900Z,31.98
2022-07-30T22:17:22.828Z,31.58
2022-07-30T22:19:52.751Z,33.05
2022-07-30T22:22:26.679Z,33.20
2022-07-30T22:25:00.119Z,28.88
2022-07-30T22:30:18.494Z,26.03
2022-07-30T22:32:49.249Z,26.23
2022-07-30T22:35:21.363Z,27.80
2022-07-30T22:38:04.221Z,26.20
2022-07-30T22:43:04.239Z,24.85
2022-07-30T22:45:48.363Z,24.65
2022-07-30T22:48:19.906Z,27.67
2022-07-30T22:50:53.754Z,27.77
2022-07-30T22:56:15.463Z,25.58
2022-07-30T22:58:44.670Z,30.05
2022-07-30T23:01:12.661Z,31.55
2022-07-30T23:03:42.141Z,31.92
2022-07-30T23:06:14.698Z,33.92
2022-07-30T23:08:44.581Z,32.63
2022-07-30T23:11:12.660Z,36.03
2022-07-30T23:12:31.671Z,29.83
2022-07-30T23:13:40.823Z,39.97
2022-07-30T23:16:09.069Z,41.17
2022-07-30T23:18:40.417Z,39.15
2022-07-30T23:21:08.457Z,39.35
2022-07-30T23:23:38.144Z,36.92
2022-07-30T23:26:06.522Z,38.90
2022-07-30T23:28:35.107Z,34.95
2022-07-30T23:31:04.296Z,37.22
2022-07-30T23:33:33.378Z,32.65
2022-07-30T23:36:01.627Z,30.43
2022-07-30T23:38:29.752Z,33.00
2022-07-30T23:41:04.744Z,31.70
2022-07-30T23:43:33.349Z,32.42
2022-07-30T23:46:01.458Z,36.25
2022-07-30T23:48:30.848Z,36.42
2022-07-30T23:50:59.790Z,31.40
2022-07-30T23:53:27.781Z,30.95
2022-07-30T23:55:55.887Z,34.60
2022-07-30T23:58:46.651Z,34.22
